METAR Data
IDs: Format: Raw Decoded Include TAF

Data at: 2136 UTC 01 Oct 2022

LIMJ 012120Z 02004KT 310V040 CAVOK 17/12 Q1018